Aérodrome :
LOGIN :

S'inscrire | Disclaimer

   EN    FR    IT 

 










Légende :    VFR   VFR Marginal   IFR   IFR Intensif   IFR Très Intensif
Visi : 
Plafond : 
>= 8 km
>= 3000ft
5 à 8 km
1000 à 3000 ft
1500m à 5 km
500 à 1000 ft
800 à 1500m
200 à 500 ft
< 800m
< 200 ft
Symboles :   Orages  Brouillard  Fortes neiges  Fortes précipitations  Vent > 20 kt
SIGMETs :   Divers  Orages  Givrage  Turbulence  Onde Orograph.  Cendres Volcan.






- Altitude de l'aérodrome : 215 ft
- Code IATA : ABZ


EGPD - Aberdeen / Dyce

DERNIER METAR :
  • 190150Z AUTO 19001KT 9999 NCD 07/06 Q1028 NOSIG

METARs EXPIRÉS :
  • 190120Z AUTO 36003KT 9999 NCD 08/07 Q1028 NOSIG
  • 190050Z AUTO 04001KT 9999 NCD 08/07 Q1028 NOSIG
  • 190020Z AUTO 35001KT 9999 NCD 09/08 Q1028
  • 182350Z AUTO 35001KT 9999 NCD 09/08 Q1028 NOSIG
  • 182320Z AUTO 02001KT 9999 NCD 09/07 Q1028 NOSIG
  • 182250Z AUTO VRB01KT 9999 NCD 09/07 Q1029 NOSIG

TAF TAF EGPD
Valide du 19 à 00h jusqu'au 20 à 00h UTC


182255Z 1900/1924 VRB03KT 9999 FEW030
PROB30
TEMPO 1900/1909 4000 BR BKN008
BECMG 1908/1911 14010KT
PROB30
TEMPO 1917/1924 6000 BKN004



MET'MAP, la Météo Aéronautique d'un coup d'oeil ! - Copyright ORBIFLY Décembre 2007 - Disclaimer

ORBIFLY MET'MAP TEAM :

Programmation & Développement : Alexandra Zaïnal
Sur une idée originale de : Baudouin d'Aumeries
Assistance à la programmation : Marc-Olivier Méhu
Soutien technique & logistique : Manuel Goepfert

Contact : metmap@orbifly.com




SOURCES & CREDITS :

   NOAA